FMEE/RUN METAR and TAF weather

Enter ICAO airport designator
Station Type Date Time Source
FMEE METAR 2019/06/26 22:00 UTC NOAA

FMEE 262200Z AUTO 10014KT 9999 FEW022 BKN039 OVC052 22/20 Q1018 TEMPO 10018G28KT 4000 SHRA SCT020TCU


Station Type Date Time Source
FMEE Decoded METAR 2019/06/26 22:00 UTC NOAA

Saint-Denis / Gillot, Reunion (FMEE) 20-53S 055-31E 25M
Jun 26, 2019 - 06:00 PM EDT / 2019.06.26 2200 UTC
Wind: from the E (100 degrees) at 16 MPH (14 KT):0
Visibility: greater than 7 mile(s):0
Sky conditions: overcast
Weather: Towering cumulus clouds observed
Temperature: 71 F (22 C)
Dew Point: 68 F (20 C)
Relative Humidity: 88%
Pressure (altimeter): 30.06 in. Hg (1018 hPa)
ob: FMEE 262200Z AUTO 10014KT 9999 FEW022 BKN039 OVC052 22/20 Q1018 TEMPO 10018G28KT 4000 SHRA SCT020TCU
cycle: 22

Station Type Date Time Source
FMEE TAF 2019/06/26 18:04 UTC NOAA

TAF FMEE 261700Z 2618/2724 12017KT 9999 FEW030 SCT050
TEMPO 2618/2704 10018G28KT 4000 SHRA SCT020TCU

Example: see airport list